createdAt,value
2023-02-19T00:01:46.862Z,102275.69
2023-02-19T00:04:16.668Z,102281.70
2023-02-19T00:06:44.830Z,102268.07
2023-02-19T00:09:13.637Z,102269.77
2023-02-19T00:11:41.734Z,102267.84
2023-02-19T00:14:09.795Z,102265.84
2023-02-19T00:16:39.414Z,102269.31
2023-02-19T00:19:09.491Z,102266.44
2023-02-19T00:21:37.392Z,102263.88
2023-02-19T00:24:06.545Z,102257.97
2023-02-19T00:26:34.627Z,102261.04
2023-02-19T00:29:02.676Z,102250.19
2023-02-19T00:31:33.175Z,102260.98
2023-02-19T00:34:02.902Z,102263.49
2023-02-19T00:36:31.633Z,102262.67
2023-02-19T00:38:59.474Z,102256.43
2023-02-19T00:41:27.334Z,102264.12
2023-02-19T00:43:59.994Z,102258.06
2023-02-19T00:46:28.711Z,102255.22
2023-02-19T00:48:56.675Z,102255.45
2023-02-19T00:51:26.573Z,102245.70
2023-02-19T00:53:54.574Z,102244.86
2023-02-19T00:56:22.393Z,102253.42
2023-02-19T00:58:50.277Z,102241.69
2023-02-19T01:01:18.632Z,102236.84
2023-02-19T01:03:46.633Z,102240.84
2023-02-19T01:06:16.129Z,102240.84
2023-02-19T01:08:43.871Z,102250.58
2023-02-19T01:11:12.190Z,102242.30
2023-02-19T01:13:40.462Z,102250.58
2023-02-19T01:16:21.953Z,102243.81
2023-02-19T01:18:49.840Z,102239.56
2023-02-19T01:21:19.500Z,102235.93
2023-02-19T01:23:47.366Z,102229.69
2023-02-19T01:26:20.160Z,102235.38
2023-02-19T01:28:48.228Z,102237.99
2023-02-19T01:31:18.322Z,102240.64
2023-02-19T01:33:48.081Z,102241.52
2023-02-19T01:36:16.263Z,102244.98
2023-02-19T01:38:44.273Z,102232.76
2023-02-19T01:41:13.993Z,102234.20
2023-02-19T01:44:09.270Z,102233.34
2023-02-19T01:46:38.384Z,102229.88
2023-02-19T01:49:37.083Z,102233.05
2023-02-19T01:52:17.995Z,102228.21
2023-02-19T01:54:45.913Z,102219.65
2023-02-19T01:57:16.659Z,102216.18
2023-02-19T01:59:51.140Z,102209.94
2023-02-19T02:02:18.975Z,102196.86
2023-02-19T02:04:51.982Z,102188.59
2023-02-19T02:07:38.279Z,102183.23
2023-02-19T02:10:21.873Z,102183.52
2023-02-19T02:12:50.368Z,102174.66
2023-02-19T02:15:18.421Z,102172.99
2023-02-19T02:18:00.986Z,102184.04
2023-02-19T02:20:35.423Z,102191.98
2023-02-19T02:23:18.241Z,102186.63
2023-02-19T02:25:55.211Z,102189.99
2023-02-19T02:28:37.682Z,102178.91
2023-02-19T02:31:19.223Z,102172.37
2023-02-19T02:33:52.800Z,102166.65
2023-02-19T02:36:23.331Z,102167.27
2023-02-19T02:38:51.231Z,102164.09
2023-02-19T02:41:19.046Z,102161.02
2023-02-19T02:43:46.815Z,102157.00
2023-02-19T02:46:15.712Z,102172.99
2023-02-19T02:48:55.081Z,102178.13
2023-02-19T02:51:54.312Z,102165.27
2023-02-19T02:54:43.363Z,102158.41
2023-02-19T02:57:15.848Z,102158.41
2023-02-19T02:59:43.849Z,102163.25
2023-02-19T03:02:15.694Z,102160.96
2023-02-19T03:05:11.081Z,102151.25
2023-02-19T03:07:43.312Z,102165.17
2023-02-19T03:10:14.856Z,102167.17
2023-02-19T03:13:01.215Z,102169.72
2023-02-19T03:15:48.752Z,102165.73
2023-02-19T03:18:35.125Z,102172.83
2023-02-19T03:21:02.896Z,102160.23
2023-02-19T03:23:50.432Z,102159.09
2023-02-19T03:26:18.558Z,102167.04
2023-02-19T03:29:05.351Z,102163.93
2023-02-19T03:31:33.206Z,102165.63
2023-02-19T03:34:06.517Z,102163.09
2023-02-19T03:36:43.318Z,102158.02
2023-02-19T03:39:11.433Z,102166.02
2023-02-19T03:41:52.334Z,102172.37
2023-02-19T03:44:29.100Z,102187.24
2023-02-19T03:47:09.024Z,102199.24
2023-02-19T03:49:56.897Z,102196.40
2023-02-19T03:52:54.612Z,102197.84
2023-02-19T03:55:53.529Z,102190.74
2023-02-19T03:58:29.017Z,102169.72
2023-02-19T04:01:00.242Z,102155.34
2023-02-19T04:03:49.845Z,102147.16
2023-02-19T04:06:43.888Z,102133.52
2023-02-19T04:09:12.572Z,102116.42
2023-02-19T04:11:40.364Z,102125.22
2023-02-19T04:14:28.308Z,102122.57
2023-02-19T04:17:00.115Z,102125.65
2023-02-19T04:19:28.120Z,102133.03
2023-02-19T04:21:56.124Z,102137.61
2023-02-19T04:24:32.031Z,102140.13
2023-02-19T04:26:59.729Z,102133.30
2023-02-19T04:29:27.531Z,102117.11
2023-02-19T04:31:55.416Z,102117.44
2023-02-19T04:34:23.264Z,102129.96
2023-02-19T04:36:51.032Z,102144.22
2023-02-19T04:39:18.905Z,102147.06
2023-02-19T04:41:46.648Z,102141.93
2023-02-19T04:44:14.436Z,102133.52
2023-02-19T04:46:43.230Z,102142.91
2023-02-19T04:49:11.107Z,102136.89
2023-02-19T04:51:39.781Z,102155.17
2023-02-19T04:54:07.822Z,102152.30
2023-02-19T04:56:35.727Z,102169.63
2023-02-19T04:59:03.629Z,102163.09
2023-02-19T05:01:31.412Z,102171.95
2023-02-19T05:03:59.860Z,102183.59
2023-02-19T05:06:28.550Z,102180.12
2023-02-19T05:08:56.260Z,102183.26
2023-02-19T05:11:24.961Z,102178.41
2023-02-19T05:13:52.786Z,102168.74
2023-02-19T05:16:20.558Z,102179.27
2023-02-19T05:18:48.684Z,102177.27
2023-02-19T05:21:16.643Z,102176.95
2023-02-19T05:23:44.526Z,102178.35
2023-02-19T05:26:32.365Z,102176.06
2023-02-19T05:29:00.630Z,102181.66
2023-02-19T05:31:28.609Z,102174.20
2023-02-19T05:33:57.226Z,102185.84
2023-02-19T05:36:25.217Z,102178.98
2023-02-19T05:38:56.522Z,102189.21
2023-02-19T05:41:28.847Z,102202.32
2023-02-19T05:43:56.941Z,102204.02
2023-02-19T05:46:26.681Z,102208.86
2023-02-19T05:48:54.742Z,102210.27
2023-02-19T05:51:24.092Z,102222.20
2023-02-19T05:53:52.066Z,102227.04
2023-02-19T05:56:29.155Z,102228.77
2023-02-19T05:58:57.181Z,102239.63
2023-02-19T06:01:27.042Z,102221.34
2023-02-19T06:03:57.355Z,102229.88
2023-02-19T06:06:25.823Z,102242.47
2023-02-19T06:08:53.720Z,102234.75
2023-02-19T06:11:21.784Z,102242.86
2023-02-19T06:13:51.413Z,102238.28
2023-02-19T06:16:19.610Z,102243.68
2023-02-19T06:18:47.610Z,102240.28
2023-02-19T06:21:16.196Z,102232.10
2023-02-19T06:23:44.174Z,102245.51
2023-02-19T06:26:19.904Z,102253.84
2023-02-19T06:28:48.424Z,102259.21
2023-02-19T06:31:16.464Z,102260.16
2023-02-19T06:33:44.374Z,102263.23
2023-02-19T06:36:16.784Z,102266.08
2023-02-19T06:38:44.599Z,102260.75
2023-02-19T06:41:13.185Z,102263.88
2023-02-19T06:43:41.251Z,102262.22
2023-02-19T06:46:09.057Z,102276.51
2023-02-19T06:48:37.080Z,102281.12
2023-02-19T06:51:04.992Z,102281.97
2023-02-19T06:53:32.823Z,102276.34
2023-02-19T06:56:31.573Z,102281.18
2023-02-19T06:59:01.052Z,102277.72
2023-02-19T07:01:29.901Z,102295.99
2023-02-19T07:03:57.738Z,102305.97
2023-02-19T07:06:26.038Z,102308.29
2023-02-19T07:08:55.601Z,102314.27
2023-02-19T07:11:23.540Z,102317.70
2023-02-19T07:13:58.242Z,102309.98
2023-02-19T07:16:26.313Z,102314.89
2023-02-19T07:18:54.302Z,102305.80
2023-02-19T07:21:22.063Z,102307.80
2023-02-19T07:23:49.898Z,102321.76
2023-02-19T07:26:18.585Z,102329.70
2023-02-19T07:28:47.080Z,102334.22
2023-02-19T07:31:15.333Z,102321.13
2023-02-19T07:33:46.720Z,102329.38
2023-02-19T07:36:14.883Z,102340.20
2023-02-19T07:38:42.667Z,102331.99
2023-02-19T07:41:10.752Z,102344.80
2023-02-19T07:43:39.070Z,102348.24
2023-02-19T07:46:08.031Z,102348.50
2023-02-19T07:48:36.891Z,102350.98
2023-02-19T07:51:05.716Z,102352.36
2023-02-19T07:53:34.589Z,102359.45
2023-02-19T07:56:03.965Z,102356.25
2023-02-19T07:58:31.965Z,102359.06
2023-02-19T08:01:04.601Z,102361.81
2023-02-19T08:03:32.365Z,102367.47
2023-02-19T08:06:00.211Z,102366.55
2023-02-19T08:08:28.033Z,102369.10
2023-02-19T08:11:14.238Z,102371.42
2023-02-19T08:13:41.971Z,102375.67
2023-02-19T08:16:20.168Z,102387.31
2023-02-19T08:18:52.227Z,102383.23
2023-02-19T08:21:20.269Z,102396.83
2023-02-19T08:23:52.844Z,102386.56
2023-02-19T08:26:20.878Z,102379.73
2023-02-19T08:28:49.831Z,102384.50
2023-02-19T08:31:17.926Z,102396.41
2023-02-19T08:33:46.004Z,102387.94
2023-02-19T08:36:14.013Z,102400.66
2023-02-19T08:38:41.903Z,102403.53
2023-02-19T08:41:13.957Z,102410.92
2023-02-19T08:43:46.951Z,102423.84
2023-02-19T08:46:14.903Z,102431.62
2023-02-19T08:48:42.903Z,102421.91
2023-02-19T08:51:12.257Z,102415.63
2023-02-19T08:53:41.354Z,102429.30
2023-02-19T08:56:10.495Z,102432.37
2023-02-19T08:58:38.715Z,102430.08
2023-02-19T09:01:11.967Z,102436.09
2023-02-19T09:03:40.096Z,102437.24
2023-02-19T09:06:08.269Z,102436.16
2023-02-19T09:08:36.180Z,102442.41
2023-02-19T09:11:05.616Z,102446.40
2023-02-19T09:13:33.961Z,102451.50
2023-02-19T09:16:03.313Z,102450.35
2023-02-19T09:18:31.182Z,102429.79
2023-02-19T09:21:02.412Z,102439.23
2023-02-19T09:23:30.204Z,102412.98
2023-02-19T09:26:00.993Z,102430.15
2023-02-19T09:28:29.096Z,102420.08
2023-02-19T09:30:57.041Z,102414.84
2023-02-19T09:33:24.834Z,102423.90
2023-02-19T09:35:52.945Z,102427.46
2023-02-19T09:38:20.758Z,102423.84
2023-02-19T09:40:48.674Z,102419.00
2023-02-19T09:43:19.178Z,102432.50
2023-02-19T09:45:46.957Z,102435.15
2023-02-19T09:48:14.823Z,102445.84
2023-02-19T09:50:48.633Z,102446.00
2023-02-19T09:53:24.843Z,102451.10
2023-02-19T09:55:52.629Z,102461.14
2023-02-19T09:58:31.300Z,102452.28
2023-02-19T10:01:00.286Z,102460.16
2023-02-19T10:03:33.116Z,102453.82
2023-02-19T10:06:03.166Z,102450.41
2023-02-19T10:08:35.349Z,102451.82
2023-02-19T10:11:06.585Z,102462.61
2023-02-19T10:13:44.306Z,102463.63
2023-02-19T10:16:19.617Z,102464.12
2023-02-19T10:18:47.577Z,102469.45
2023-02-19T10:21:23.120Z,102484.48
2023-02-19T10:23:53.585Z,102481.87
2023-02-19T10:26:21.702Z,102473.37
2023-02-19T10:28:50.459Z,102460.48
2023-02-19T10:31:21.137Z,102463.56
2023-02-19T10:33:59.287Z,102462.88
2023-02-19T10:36:32.801Z,102462.81
2023-02-19T10:39:04.491Z,102456.01
2023-02-19T10:41:32.413Z,102431.55
2023-02-19T10:44:17.016Z,102441.91
2023-02-19T10:46:59.311Z,102447.09
2023-02-19T10:49:41.386Z,102460.81
2023-02-19T10:52:29.824Z,102455.03
2023-02-19T10:54:59.349Z,102455.48
2023-02-19T10:57:38.970Z,102460.88
2023-02-19T11:00:31.421Z,102479.65
2023-02-19T11:03:25.147Z,102473.11
2023-02-19T11:06:03.222Z,102476.45
2023-02-19T11:08:31.531Z,102475.20
2023-02-19T11:10:59.569Z,102469.48
2023-02-19T11:13:39.027Z,102479.23
2023-02-19T11:16:06.945Z,102476.77
2023-02-19T11:18:37.325Z,102473.89
2023-02-19T11:21:06.659Z,102462.74
2023-02-19T11:23:38.267Z,102457.55
2023-02-19T11:26:07.724Z,102457.25
2023-02-19T11:28:39.619Z,102441.23
2023-02-19T11:31:28.593Z,102451.66
2023-02-19T11:33:59.460Z,102462.65
2023-02-19T11:36:31.028Z,102454.99
2023-02-19T11:39:00.004Z,102457.41
2023-02-19T11:41:36.889Z,102450.05
2023-02-19T11:44:31.585Z,102437.99
2023-02-19T11:47:31.782Z,102453.52
2023-02-19T11:50:02.697Z,102444.34
2023-02-19T11:52:33.487Z,102430.15
2023-02-19T11:55:05.309Z,102428.55
2023-02-19T11:57:33.150Z,102442.05
2023-02-19T12:00:29.006Z,102431.91
2023-02-19T12:03:12.011Z,102406.34
2023-02-19T12:06:03.066Z,102414.42
2023-02-19T12:08:55.906Z,102398.73
2023-02-19T12:12:00.650Z,102424.52
2023-02-19T12:14:31.332Z,102389.54
2023-02-19T12:17:24.482Z,102394.93
2023-02-19T12:20:18.437Z,102416.25
2023-02-19T12:23:23.114Z,102403.70
2023-02-19T12:26:22.164Z,102403.73
2023-02-19T12:28:57.621Z,102416.19
2023-02-19T12:31:44.230Z,102405.43
2023-02-19T12:34:30.157Z,102417.49
2023-02-19T12:37:32.434Z,102420.60
2023-02-19T12:40:12.623Z,102429.59
2023-02-19T12:42:45.061Z,102435.57
2023-02-19T12:45:21.768Z,102429.10
2023-02-19T12:48:16.228Z,102435.77
2023-02-19T12:50:44.237Z,102443.03
2023-02-19T12:53:39.573Z,102437.08
2023-02-19T12:56:12.237Z,102449.44
2023-02-19T12:58:44.572Z,102448.06
2023-02-19T13:01:16.392Z,102444.59
2023-02-19T13:03:51.432Z,102449.05
2023-02-19T13:06:38.967Z,102442.83
2023-02-19T13:09:30.794Z,102451.01
2023-02-19T13:12:29.332Z,102458.72
2023-02-19T13:14:59.905Z,102460.42
2023-02-19T13:17:44.149Z,102460.72
2023-02-19T13:20:28.656Z,102465.91
2023-02-19T13:23:39.184Z,102458.04
2023-02-19T13:26:44.894Z,102446.20
2023-02-19T13:29:19.108Z,102440.12
2023-02-19T13:32:12.314Z,102441.69
2023-02-19T13:34:49.170Z,102432.56
2023-02-19T13:37:17.238Z,102430.05
2023-02-19T13:39:52.972Z,102432.23
2023-02-19T13:42:37.315Z,102426.38
2023-02-19T13:45:06.658Z,102431.23
2023-02-19T13:47:50.775Z,102427.53
2023-02-19T13:50:37.618Z,102422.37
2023-02-19T13:53:46.790Z,102419.48
2023-02-19T13:56:33.495Z,102417.59
2023-02-19T13:59:37.148Z,102418.90
2023-02-19T14:02:04.922Z,102426.94
2023-02-19T14:04:41.301Z,102428.61
2023-02-19T14:07:09.159Z,102420.44
2023-02-19T14:09:42.721Z,102422.59
2023-02-19T14:12:19.320Z,102424.81
2023-02-19T14:14:47.000Z,102421.88
2023-02-19T14:17:37.243Z,102420.80
2023-02-19T14:20:34.317Z,102423.09
2023-02-19T14:23:09.890Z,102439.73
2023-02-19T14:25:39.849Z,102423.09
2023-02-19T14:28:31.508Z,102415.92
2023-02-19T14:31:21.135Z,102423.73
2023-02-19T14:33:51.267Z,102431.91
2023-02-19T14:36:49.927Z,102430.99
2023-02-19T14:39:31.341Z,102426.87
2023-02-19T14:42:01.144Z,102421.94
2023-02-19T14:44:34.034Z,102410.66
2023-02-19T14:47:05.765Z,102413.44
2023-02-19T14:49:46.944Z,102419.23
2023-02-19T14:52:42.257Z,102419.42
2023-02-19T14:55:16.956Z,102424.88
2023-02-19T14:57:49.387Z,102419.78
2023-02-19T15:00:24.771Z,102415.89
2023-02-19T15:02:53.261Z,102404.41
2023-02-19T15:05:25.042Z,102415.70
2023-02-19T15:07:56.935Z,102428.28
2023-02-19T15:10:25.019Z,102431.98
2023-02-19T15:12:54.259Z,102429.13
2023-02-19T15:15:33.728Z,102431.98
2023-02-19T15:18:02.047Z,102436.03
2023-02-19T15:20:32.218Z,102436.65
2023-02-19T15:23:00.827Z,102437.83
2023-02-19T15:25:34.869Z,102446.43
2023-02-19T15:28:26.898Z,102452.15
2023-02-19T15:31:00.923Z,102459.87
2023-02-19T15:33:28.880Z,102461.57
2023-02-19T15:35:58.345Z,102466.21
2023-02-19T15:38:26.709Z,102469.71
2023-02-19T15:40:59.393Z,102465.16
2023-02-19T15:43:45.657Z,102465.82
2023-02-19T15:46:18.601Z,102468.66
2023-02-19T15:49:07.972Z,102475.10
2023-02-19T15:51:48.505Z,102477.98
2023-02-19T15:54:29.322Z,102473.93
2023-02-19T15:56:58.709Z,102472.26
2023-02-19T15:59:30.927Z,102466.54
2023-02-19T16:01:59.389Z,102468.56
2023-02-19T16:04:27.216Z,102472.03
2023-02-19T16:07:02.572Z,102473.17
2023-02-19T16:09:38.151Z,102478.47
2023-02-19T16:12:23.708Z,102481.97
2023-02-19T16:14:52.274Z,102489.49
2023-02-19T16:17:24.240Z,102486.41
2023-02-19T16:20:03.668Z,102481.84
2023-02-19T16:22:33.827Z,102496.55
2023-02-19T16:25:06.283Z,102500.64
2023-02-19T16:27:38.756Z,102509.56
2023-02-19T16:30:29.812Z,102517.58
2023-02-19T16:33:23.169Z,102515.91
2023-02-19T16:35:53.636Z,102509.11
2023-02-19T16:38:21.834Z,102515.13
2023-02-19T16:40:49.520Z,102511.16
2023-02-19T16:43:18.313Z,102511.49
2023-02-19T16:45:46.451Z,102514.77
2023-02-19T16:48:15.143Z,102524.48
2023-02-19T16:50:43.546Z,102532.42
2023-02-19T16:53:22.525Z,102549.91
2023-02-19T16:55:50.408Z,102555.93
2023-02-19T16:58:18.582Z,102562.24
2023-02-19T17:00:46.481Z,102565.45
2023-02-19T17:03:20.351Z,102558.87
2023-02-19T17:05:52.253Z,102567.73
2023-02-19T17:08:23.240Z,102570.61
2023-02-19T17:10:51.180Z,102580.65
2023-02-19T17:13:19.084Z,102581.50
2023-02-19T17:15:47.279Z,102572.67
2023-02-19T17:18:15.262Z,102579.01
2023-02-19T17:20:43.059Z,102585.39
2023-02-19T17:23:10.879Z,102573.16
2023-02-19T17:25:38.759Z,102566.88
2023-02-19T17:28:07.036Z,102567.27
2023-02-19T17:30:35.118Z,102571.59
2023-02-19T17:33:05.878Z,102573.06
2023-02-19T17:35:33.756Z,102572.54
2023-02-19T17:38:01.540Z,102567.44
2023-02-19T17:40:33.464Z,102575.45
2023-02-19T17:43:01.865Z,102578.62
2023-02-19T17:45:35.408Z,102582.64
2023-02-19T17:48:03.237Z,102582.41
2023-02-19T17:50:32.421Z,102592.38
2023-02-19T17:53:05.214Z,102594.38
2023-02-19T17:55:33.057Z,102584.08
2023-02-19T17:58:01.131Z,102587.28
2023-02-19T18:00:43.493Z,102578.75
2023-02-19T18:03:12.434Z,102585.68
2023-02-19T18:05:45.470Z,102591.70
2023-02-19T18:08:18.534Z,102605.76
2023-02-19T18:10:46.354Z,102604.09
2023-02-19T18:13:14.537Z,102606.41
2023-02-19T18:15:42.494Z,102602.98
2023-02-19T18:18:11.308Z,102611.55
2023-02-19T18:20:39.480Z,102617.56
2023-02-19T18:23:07.427Z,102623.28
2023-02-19T18:25:38.202Z,102624.20
2023-02-19T18:28:06.543Z,102621.09
2023-02-19T18:30:37.132Z,102636.27
2023-02-19T18:33:12.082Z,102646.86
2023-02-19T18:35:49.613Z,102656.86
2023-02-19T18:38:22.805Z,102657.71
2023-02-19T18:40:50.896Z,102663.40
2023-02-19T18:43:18.915Z,102662.88
2023-02-19T18:45:48.100Z,102666.02
2023-02-19T18:48:16.171Z,102662.65
2023-02-19T18:50:44.097Z,102654.67
2023-02-19T18:53:12.858Z,102670.40
2023-02-19T18:55:41.036Z,102675.53
2023-02-19T18:58:08.960Z,102674.13
2023-02-19T19:00:37.009Z,102675.30
2023-02-19T19:03:05.029Z,102678.15
2023-02-19T19:05:33.200Z,102677.30
2023-02-19T19:08:02.958Z,102667.36
2023-02-19T19:10:31.810Z,102678.77
2023-02-19T19:13:02.769Z,102682.76
2023-02-19T19:15:30.822Z,102686.74
2023-02-19T19:17:59.178Z,102683.05
2023-02-19T19:20:27.141Z,102688.19
2023-02-19T19:22:55.379Z,102677.95
2023-02-19T19:25:24.305Z,102681.13
2023-02-19T19:27:53.051Z,102683.97
2023-02-19T19:30:21.834Z,102681.13
2023-02-19T19:32:51.845Z,102679.39
2023-02-19T19:35:20.299Z,102683.70
2023-02-19T19:37:48.765Z,102683.70
2023-02-19T19:40:18.524Z,102683.45
2023-02-19T19:42:47.001Z,102686.88
2023-02-19T19:45:15.169Z,102689.46
2023-02-19T19:47:43.070Z,102683.18
2023-02-19T19:50:11.260Z,102686.95
2023-02-19T19:52:39.133Z,102686.35
2023-02-19T19:55:10.361Z,102689.49
2023-02-19T19:57:40.820Z,102680.66
2023-02-19T20:00:09.703Z,102680.66
2023-02-19T20:02:37.728Z,102670.92
2023-02-19T20:05:05.917Z,102670.37
2023-02-19T20:07:33.941Z,102678.41
2023-02-19T20:10:01.865Z,102682.10
2023-02-19T20:12:30.096Z,102683.54
2023-02-19T20:14:58.132Z,102691.26
2023-02-19T20:17:30.238Z,102694.10
2023-02-19T20:19:58.450Z,102692.37
2023-02-19T20:22:26.733Z,102701.27
2023-02-19T20:24:55.318Z,102701.52
2023-02-19T20:27:26.242Z,102704.99
2023-02-19T20:29:57.283Z,102706.13
2023-02-19T20:32:30.112Z,102709.83
2023-02-19T20:34:57.927Z,102713.30
2023-02-19T20:37:25.680Z,102713.59
2023-02-19T20:39:58.489Z,102723.01
2023-02-19T20:42:26.333Z,102733.57
2023-02-19T20:44:54.151Z,102719.57
2023-02-19T20:47:22.019Z,102720.16
2023-02-19T20:49:49.813Z,102719.31
2023-02-19T20:52:18.054Z,102716.20
2023-02-19T20:54:46.170Z,102711.86
2023-02-19T20:57:14.266Z,102717.58
2023-02-19T20:59:42.412Z,102721.89
2023-02-19T21:02:18.129Z,102728.14
2023-02-19T21:04:46.026Z,102725.30
2023-02-19T21:07:13.927Z,102723.59
2023-02-19T21:09:41.844Z,102728.70
2023-02-19T21:12:09.853Z,102727.03
2023-02-19T21:14:37.846Z,102732.72
2023-02-19T21:17:06.714Z,102725.30
2023-02-19T21:19:34.667Z,102721.60
2023-02-19T21:22:02.783Z,102721.89
2023-02-19T21:24:35.708Z,102718.16
2023-02-19T21:27:08.342Z,102716.20
2023-02-19T21:29:36.494Z,102720.16
2023-02-19T21:32:07.652Z,102715.91
2023-02-19T21:34:35.665Z,102716.20
2023-02-19T21:37:03.592Z,102720.75
2023-02-19T21:39:36.274Z,102719.09
2023-02-19T21:42:05.001Z,102718.23
2023-02-19T21:44:32.881Z,102718.23
2023-02-19T21:47:00.768Z,102726.77
2023-02-19T21:49:28.876Z,102722.19
2023-02-19T21:51:56.781Z,102725.36
2023-02-19T21:54:29.878Z,102729.09
2023-02-19T21:56:57.966Z,102724.54
2023-02-19T21:59:28.739Z,102728.23
2023-02-19T22:01:58.243Z,102733.93
2023-02-19T22:04:26.143Z,102739.95
2023-02-19T22:06:56.690Z,102732.84
2023-02-19T22:09:24.677Z,102733.99
2023-02-19T22:11:52.643Z,102736.84
2023-02-19T22:14:20.496Z,102737.69
2023-02-19T22:16:48.557Z,102741.67
2023-02-19T22:19:16.925Z,102730.00
2023-02-19T22:21:45.545Z,102741.71
2023-02-19T22:24:18.760Z,102745.44
2023-02-19T22:26:46.975Z,102740.01
2023-02-19T22:29:15.617Z,102743.15
2023-02-19T22:31:43.750Z,102735.46
2023-02-19T22:34:11.865Z,102742.85
2023-02-19T22:36:40.264Z,102740.89
2023-02-19T22:39:09.413Z,102744.59
2023-02-19T22:41:37.299Z,102756.81
2023-02-19T22:44:05.327Z,102750.57
2023-02-19T22:46:33.316Z,102751.71
2023-02-19T22:49:04.003Z,102749.13
2023-02-19T22:51:31.886Z,102755.15
2023-02-19T22:54:00.119Z,102746.88
2023-02-19T22:56:28.906Z,102738.90
2023-02-19T22:58:57.575Z,102745.50
2023-02-19T23:01:25.628Z,102748.34
2023-02-19T23:03:56.109Z,102738.05
2023-02-19T23:06:31.138Z,102736.97
2023-02-19T23:09:10.928Z,102735.79
2023-02-19T23:11:40.365Z,102735.79
2023-02-19T23:14:08.282Z,102734.09
2023-02-19T23:16:39.197Z,102745.77
2023-02-19T23:19:07.709Z,102743.51
2023-02-19T23:21:35.733Z,102748.09
2023-02-19T23:24:06.908Z,102757.77
2023-02-19T23:26:34.828Z,102764.34
2023-02-19T23:29:02.793Z,102760.34
2023-02-19T23:31:30.781Z,102770.91
2023-02-19T23:33:58.659Z,102765.19
2023-02-19T23:36:26.942Z,102763.19
2023-02-19T23:38:54.751Z,102772.90
2023-02-19T23:41:22.636Z,102769.17
2023-02-19T23:43:50.537Z,102773.16
2023-02-19T23:46:19.056Z,102770.05
2023-02-19T23:48:47.396Z,102763.52
2023-02-19T23:51:15.380Z,102762.66
2023-02-19T23:53:43.246Z,102757.24
2023-02-19T23:56:11.557Z,102750.70
2023-02-19T23:58:39.601Z,102747.85
